createdAt,value
2019-05-25T00:00:17.237Z,12.77
2019-05-25T00:02:47.653Z,9.67
2019-05-25T00:05:17.917Z,11.67
2019-05-25T00:07:48.979Z,9.57
2019-05-25T00:10:18.833Z,10.10
2019-05-25T00:12:48.937Z,10.70
2019-05-25T00:15:20.072Z,10.87
2019-05-25T00:17:56.453Z,9.70
2019-05-25T00:20:26.455Z,13.07
2019-05-25T00:22:57.059Z,13.00
2019-05-25T00:25:27.405Z,10.70
2019-05-25T00:27:58.220Z,11.47
2019-05-25T00:30:28.827Z,11.60
2019-05-25T00:32:59.300Z,13.67
2019-05-25T00:35:29.890Z,11.90
2019-05-25T00:38:00.334Z,13.73
2019-05-25T00:40:30.702Z,12.97
2019-05-25T00:43:02.409Z,18.70
2019-05-25T00:45:32.654Z,12.63
2019-05-25T00:48:02.992Z,12.67
2019-05-25T00:50:33.038Z,13.77
2019-05-25T00:53:06.424Z,13.10
2019-05-25T00:55:38.515Z,12.77
2019-05-25T00:58:08.140Z,12.97
2019-05-25T01:00:39.355Z,15.00
2019-05-25T01:03:09.428Z,14.63
2019-05-25T01:05:40.048Z,15.13
2019-05-25T01:08:10.057Z,17.33
2019-05-25T01:10:40.204Z,20.60
2019-05-25T01:13:11.721Z,22.67
2019-05-25T01:15:42.234Z,16.63
2019-05-25T01:18:13.068Z,18.23
2019-05-25T01:20:44.071Z,16.13
2019-05-25T01:23:14.713Z,17.23
2019-05-25T01:25:45.350Z,16.37
2019-05-25T01:28:17.832Z,16.30
2019-05-25T01:30:48.003Z,19.13
2019-05-25T01:33:18.283Z,18.07
2019-05-25T01:35:48.677Z,13.87
2019-05-25T01:38:18.810Z,14.37
2019-05-25T01:40:49.100Z,14.30
2019-05-25T01:43:19.987Z,15.90
2019-05-25T01:45:50.349Z,14.20
2019-05-25T01:48:38.324Z,16.47
2019-05-25T01:51:08.518Z,14.73
2019-05-25T01:53:39.528Z,14.77
2019-05-25T01:56:09.656Z,15.60
2019-05-25T01:58:39.985Z,17.63
2019-05-25T02:01:10.254Z,16.60
2019-05-25T02:03:40.716Z,16.70
2019-05-25T02:06:11.240Z,15.30
2019-05-25T02:08:41.892Z,15.77
2019-05-25T02:11:12.455Z,19.23
2019-05-25T02:13:43.018Z,17.13
2019-05-25T02:16:11.739Z,18.10
2019-05-25T02:18:45.552Z,17.77
2019-05-25T02:21:13.750Z,16.97
2019-05-25T02:23:44.027Z,15.13
2019-05-25T02:26:14.388Z,16.47
2019-05-25T02:28:44.628Z,16.60
2019-05-25T02:31:15.013Z,18.47
2019-05-25T02:33:45.871Z,16.33
2019-05-25T02:36:20.541Z,15.90
2019-05-25T02:38:50.183Z,17.37
2019-05-25T02:41:20.559Z,17.17
2019-05-25T02:43:50.814Z,16.57
2019-05-25T02:46:21.584Z,15.57
2019-05-25T02:48:51.944Z,15.83
2019-05-25T02:51:22.125Z,15.47
2019-05-25T02:53:52.597Z,15.93
2019-05-25T02:56:23.558Z,16.07
2019-05-25T02:58:53.714Z,14.93
2019-05-25T03:01:23.874Z,16.80
2019-05-25T03:03:54.431Z,17.10
2019-05-25T03:06:27.631Z,17.97
2019-05-25T03:08:57.817Z,14.50
2019-05-25T03:11:29.002Z,16.33
2019-05-25T03:13:59.788Z,16.73
2019-05-25T03:16:29.936Z,15.37
2019-05-25T03:19:00.144Z,14.70
2019-05-25T03:21:30.337Z,15.00
2019-05-25T03:24:00.510Z,16.07
2019-05-25T03:26:31.178Z,17.40
2019-05-25T03:29:01.309Z,18.70
2019-05-25T03:31:31.765Z,17.73
2019-05-25T03:34:01.809Z,16.83
2019-05-25T03:36:32.353Z,15.37
2019-05-25T03:39:05.197Z,17.17
2019-05-25T03:41:35.650Z,15.20
2019-05-25T03:44:05.722Z,16.97
2019-05-25T03:46:36.044Z,15.97
2019-05-25T03:49:07.866Z,14.03
2019-05-25T03:51:38.170Z,15.57
2019-05-25T03:54:09.518Z,15.37
2019-05-25T03:56:39.951Z,13.97
2019-05-25T03:59:10.840Z,13.53
2019-05-25T04:01:42.001Z,14.30
2019-05-25T04:04:12.443Z,14.83
2019-05-25T04:06:44.794Z,17.20
2019-05-25T04:09:16.440Z,14.33
2019-05-25T04:11:50.733Z,13.90
2019-05-25T04:14:21.518Z,13.23
2019-05-25T04:16:52.127Z,16.40
2019-05-25T04:19:23.513Z,13.10
2019-05-25T04:21:54.527Z,13.53
2019-05-25T04:24:25.162Z,15.73
2019-05-25T04:26:55.265Z,13.63
2019-05-25T04:29:26.533Z,13.07
2019-05-25T04:31:55.613Z,13.70
2019-05-25T04:34:26.394Z,13.30
2019-05-25T04:36:56.571Z,12.13
2019-05-25T04:39:26.975Z,13.00
2019-05-25T04:41:57.835Z,13.43
2019-05-25T04:44:27.971Z,11.23
2019-05-25T04:46:58.382Z,13.53
2019-05-25T04:49:28.610Z,16.10
2019-05-25T04:51:59.922Z,11.77
2019-05-25T04:54:31.660Z,11.27
2019-05-25T04:57:01.902Z,11.20
2019-05-25T04:59:32.249Z,11.93
2019-05-25T05:02:03.206Z,11.53
2019-05-25T05:04:35.213Z,13.03
2019-05-25T05:07:06.837Z,10.60
2019-05-25T05:09:37.604Z,10.57
2019-05-25T05:12:10.293Z,12.67
2019-05-25T05:14:40.884Z,12.00
2019-05-25T05:17:11.523Z,11.23
2019-05-25T05:19:42.001Z,11.80
2019-05-25T05:22:12.153Z,13.10
2019-05-25T05:24:43.418Z,11.33
2019-05-25T05:27:14.215Z,11.73
2019-05-25T05:29:44.707Z,12.60
2019-05-25T05:32:26.640Z,12.33
2019-05-25T05:34:46.822Z,12.93
2019-05-25T05:37:18.142Z,11.93
2019-05-25T05:39:48.874Z,11.60
2019-05-25T05:42:20.609Z,11.50
2019-05-25T05:44:55.414Z,11.90
2019-05-25T05:47:26.519Z,12.60
2019-05-25T05:50:00.109Z,12.67
2019-05-25T05:52:37.529Z,11.67
2019-05-25T05:55:10.379Z,11.73
2019-05-25T05:57:40.936Z,13.90
2019-05-25T06:00:13.632Z,11.10
2019-05-25T06:02:44.206Z,12.37
2019-05-25T06:05:15.073Z,11.63
2019-05-25T06:07:46.186Z,12.70
2019-05-25T06:10:16.814Z,12.87
2019-05-25T06:12:47.274Z,12.23
2019-05-25T06:15:17.725Z,13.47
2019-05-25T06:17:48.204Z,15.40
2019-05-25T06:20:19.987Z,15.60
2019-05-25T06:22:52.562Z,13.20
2019-05-25T06:25:23.242Z,13.37
2019-05-25T06:27:54.427Z,10.33
2019-05-25T06:30:25.526Z,10.17
2019-05-25T06:32:56.919Z,10.37
2019-05-25T06:35:27.111Z,10.33
2019-05-25T06:37:57.640Z,9.67
2019-05-25T06:40:28.352Z,11.50
2019-05-25T06:42:58.796Z,9.37
2019-05-25T06:45:29.980Z,9.87
2019-05-25T06:48:00.304Z,9.80
2019-05-25T06:50:30.561Z,11.53
2019-05-25T06:53:00.997Z,10.40
2019-05-25T06:55:31.523Z,11.10
2019-05-25T06:58:01.941Z,10.50
2019-05-25T07:00:33.073Z,10.13
2019-05-25T07:03:03.654Z,10.00
2019-05-25T07:05:35.631Z,10.57
2019-05-25T07:08:07.965Z,9.83
2019-05-25T07:10:39.223Z,9.43
2019-05-25T07:13:09.489Z,9.60
2019-05-25T07:15:40.321Z,12.43
2019-05-25T07:18:10.173Z,10.13
2019-05-25T07:20:40.166Z,9.53
2019-05-25T07:23:10.987Z,8.57
2019-05-25T07:25:41.473Z,9.77
2019-05-25T07:28:11.614Z,8.60
2019-05-25T07:30:46.064Z,9.37
2019-05-25T07:33:15.175Z,9.53
2019-05-25T07:35:45.491Z,8.87
2019-05-25T07:38:16.037Z,9.83
2019-05-25T07:40:46.707Z,8.57
2019-05-25T07:43:17.555Z,8.90
2019-05-25T07:45:47.767Z,10.40
2019-05-25T07:48:18.084Z,11.43
2019-05-25T07:50:48.411Z,10.03
2019-05-25T07:53:17.319Z,11.00
2019-05-25T07:55:47.466Z,10.07
2019-05-25T07:58:18.726Z,10.50
2019-05-25T08:00:49.525Z,9.87
2019-05-25T08:03:19.820Z,10.43
2019-05-25T08:05:49.989Z,10.43
2019-05-25T08:08:20.044Z,11.00
2019-05-25T08:10:50.469Z,10.93
2019-05-25T08:13:20.801Z,11.67
2019-05-25T08:15:51.110Z,10.83
2019-05-25T08:18:20.838Z,10.97
2019-05-25T08:20:49.920Z,10.80
2019-05-25T08:23:18.748Z,10.43
2019-05-25T08:25:48.222Z,11.73
2019-05-25T08:28:31.753Z,10.63
2019-05-25T08:30:51.379Z,10.47
2019-05-25T08:33:21.484Z,9.63
2019-05-25T08:35:52.099Z,10.37
2019-05-25T08:38:22.332Z,10.60
2019-05-25T08:40:52.631Z,11.20
2019-05-25T08:43:22.758Z,11.03
2019-05-25T08:45:53.464Z,10.70
2019-05-25T08:49:32.306Z,11.60
2019-05-25T08:52:10.461Z,10.30
2019-05-25T08:54:41.109Z,10.77
2019-05-25T08:57:14.129Z,10.77
2019-05-25T08:59:44.130Z,10.83
2019-05-25T09:02:14.682Z,11.53
2019-05-25T09:04:45.547Z,10.53
2019-05-25T09:07:15.726Z,10.17
2019-05-25T09:09:45.962Z,12.27
2019-05-25T09:12:16.742Z,11.60
2019-05-25T09:14:47.330Z,9.93
2019-05-25T09:17:18.533Z,10.47
2019-05-25T09:19:49.155Z,9.30
2019-05-25T09:22:19.463Z,9.23
2019-05-25T09:24:50.279Z,9.00
2019-05-25T09:27:20.956Z,10.20
2019-05-25T09:29:51.344Z,10.77
2019-05-25T09:32:27.140Z,10.20
2019-05-25T09:34:57.605Z,9.53
2019-05-25T09:37:27.899Z,10.77
2019-05-25T09:39:58.190Z,10.07
2019-05-25T09:42:31.081Z,9.83
2019-05-25T09:45:01.341Z,10.00
2019-05-25T09:47:31.468Z,8.40
2019-05-25T09:50:02.282Z,9.37
2019-05-25T09:52:35.622Z,9.37
2019-05-25T09:55:06.025Z,8.60
2019-05-25T09:57:36.550Z,10.10
2019-05-25T10:00:09.062Z,9.13
2019-05-25T10:02:39.721Z,8.40
2019-05-25T10:05:10.839Z,9.60
2019-05-25T10:07:43.051Z,11.80
2019-05-25T10:10:13.705Z,10.60
2019-05-25T10:12:44.194Z,9.10
2019-05-25T10:15:15.594Z,9.43
2019-05-25T10:17:47.395Z,9.90
2019-05-25T10:20:18.587Z,11.60
2019-05-25T10:22:48.764Z,10.50
2019-05-25T10:25:19.015Z,10.77
2019-05-25T10:27:49.368Z,10.93
2019-05-25T10:30:21.564Z,10.60
2019-05-25T10:32:52.412Z,12.20
2019-05-25T10:35:22.557Z,10.77
2019-05-25T10:37:54.577Z,9.70
2019-05-25T10:40:24.891Z,11.83
2019-05-25T10:42:57.182Z,10.70
2019-05-25T10:45:26.945Z,11.73
2019-05-25T10:48:00.575Z,9.40
2019-05-25T10:50:32.019Z,11.50
2019-05-25T10:53:02.054Z,10.20
2019-05-25T10:55:37.030Z,11.53
2019-05-25T10:58:07.578Z,9.97
2019-05-25T11:00:37.895Z,11.30
2019-05-25T11:03:08.782Z,13.23
2019-05-25T11:05:39.155Z,9.70
2019-05-25T11:08:09.853Z,9.73
2019-05-25T11:10:40.244Z,9.80
2019-05-25T11:13:13.220Z,10.53
2019-05-25T11:15:43.868Z,10.37
2019-05-25T11:18:14.366Z,10.47
2019-05-25T11:20:44.565Z,10.27
2019-05-25T11:23:14.603Z,10.83
2019-05-25T11:25:46.295Z,10.40
2019-05-25T11:28:17.526Z,10.47
2019-05-25T11:30:48.856Z,11.50
2019-05-25T11:33:20.705Z,10.40
2019-05-25T11:35:51.660Z,9.70
2019-05-25T11:38:22.509Z,7.20
2019-05-25T11:40:52.933Z,7.43
2019-05-25T11:43:23.257Z,5.50
2019-05-25T11:45:54.315Z,6.53
2019-05-25T11:48:24.389Z,5.90
2019-05-25T11:50:54.721Z,7.13
2019-05-25T11:53:25.250Z,5.70
2019-05-25T11:55:55.930Z,5.30
2019-05-25T11:58:26.445Z,5.60
2019-05-25T12:00:57.247Z,6.00
2019-05-25T12:03:28.498Z,6.10
2019-05-25T12:05:59.304Z,6.33
2019-05-25T12:08:29.978Z,16.10
2019-05-25T12:11:00.916Z,6.23
2019-05-25T12:13:32.804Z,8.40
2019-05-25T12:16:03.123Z,7.47
2019-05-25T12:18:39.737Z,8.27
2019-05-25T12:21:10.369Z,8.47
2019-05-25T12:23:41.387Z,9.50
2019-05-25T12:26:13.933Z,7.00
2019-05-25T12:28:44.147Z,8.90
2019-05-25T12:31:15.115Z,9.67
2019-05-25T12:33:45.333Z,8.57
2019-05-25T12:36:16.295Z,9.10
2019-05-25T12:38:46.722Z,10.83
2019-05-25T12:41:17.136Z,10.70
2019-05-25T12:43:48.209Z,10.70
2019-05-25T12:46:19.159Z,9.23
2019-05-25T12:48:57.413Z,10.50
2019-05-25T12:51:28.143Z,9.43
2019-05-25T12:53:59.176Z,8.90
2019-05-25T12:56:30.320Z,5.43
2019-05-25T12:59:01.384Z,6.03
2019-05-25T13:01:31.965Z,6.00
2019-05-25T13:04:02.373Z,4.70
2019-05-25T13:06:33.958Z,3.93
2019-05-25T13:09:06.513Z,5.73
2019-05-25T13:11:37.214Z,4.10
2019-05-25T13:14:14.685Z,7.20
2019-05-25T13:17:52.754Z,5.47
2019-05-25T13:21:23.238Z,4.90
2019-05-25T13:23:54.716Z,5.87
2019-05-25T13:26:25.513Z,6.10
2019-05-25T13:28:55.962Z,6.63
2019-05-25T13:31:26.162Z,6.07
2019-05-25T13:33:56.117Z,5.87
2019-05-25T13:36:26.521Z,11.37
2019-05-25T13:38:57.624Z,7.97
2019-05-25T13:41:30.971Z,7.83
2019-05-25T13:44:03.220Z,6.77
2019-05-25T13:46:35.169Z,6.70
2019-05-25T13:49:05.678Z,8.60
2019-05-25T13:51:36.504Z,7.97
2019-05-25T13:54:08.174Z,5.20
2019-05-25T13:56:40.165Z,3.40
2019-05-25T13:59:10.242Z,3.27
2019-05-25T14:01:41.606Z,3.67
2019-05-25T14:04:12.020Z,5.30
2019-05-25T14:06:43.410Z,5.63
2019-05-25T14:09:15.971Z,4.57
2019-05-25T14:11:46.648Z,5.13
2019-05-25T14:14:17.311Z,5.47
2019-05-25T14:16:47.534Z,5.00
2019-05-25T14:19:18.867Z,5.13
2019-05-25T14:21:50.405Z,5.50
2019-05-25T14:24:21.394Z,6.13
2019-05-25T14:26:52.027Z,6.80
2019-05-25T14:29:26.031Z,7.83
2019-05-25T14:31:54.939Z,9.13
2019-05-25T14:34:25.201Z,12.97
2019-05-25T14:36:54.201Z,7.23
2019-05-25T14:39:23.781Z,8.53
2019-05-25T14:41:53.984Z,5.20
2019-05-25T14:44:24.591Z,13.00
2019-05-25T14:46:55.485Z,9.57
2019-05-25T14:49:25.822Z,17.32
2019-05-25T14:51:56.379Z,8.68
2019-05-25T14:54:26.504Z,9.33
2019-05-25T14:56:57.000Z,5.55
2019-05-25T14:59:27.020Z,5.73
2019-05-25T15:02:02.398Z,4.83
2019-05-25T15:04:29.529Z,6.70
2019-05-25T15:07:00.444Z,6.33
2019-05-25T15:09:33.305Z,9.47
2019-05-25T15:12:04.187Z,7.97
2019-05-25T15:14:34.337Z,8.07
2019-05-25T15:17:05.076Z,9.17
2019-05-25T15:19:35.989Z,9.20
2019-05-25T15:22:06.839Z,7.73
2019-05-25T15:24:37.189Z,10.40
2019-05-25T15:27:07.822Z,8.20
2019-05-25T15:29:39.745Z,36.57
2019-05-25T15:32:19.639Z,10.47
2019-05-25T15:34:42.798Z,9.83
2019-05-25T15:37:13.297Z,10.00
2019-05-25T15:39:44.708Z,11.33
2019-05-25T15:42:15.241Z,14.40
2019-05-25T15:44:46.192Z,14.23
2019-05-25T15:47:17.796Z,33.80
2019-05-25T15:49:48.269Z,18.57
2019-05-25T15:52:18.835Z,16.53
2019-05-25T15:54:49.343Z,15.03
2019-05-25T15:57:19.942Z,18.53
2019-05-25T15:59:50.199Z,16.57
2019-05-25T16:02:35.591Z,12.77
2019-05-25T16:04:53.259Z,15.13
2019-05-25T16:07:24.226Z,13.03
2019-05-25T16:09:55.100Z,11.93
2019-05-25T16:12:27.412Z,9.90
2019-05-25T16:14:58.405Z,10.60
2019-05-25T16:17:29.518Z,12.67
2019-05-25T16:20:00.450Z,10.70
2019-05-25T16:22:32.117Z,8.17
2019-05-25T16:25:04.477Z,8.97
2019-05-25T16:27:35.018Z,9.30
2019-05-25T16:30:08.903Z,10.67
2019-05-25T16:33:09.969Z,14.47
2019-05-25T16:35:16.532Z,8.60
2019-05-25T16:37:49.082Z,11.77
2019-05-25T16:40:20.323Z,10.33
2019-05-25T16:42:50.841Z,9.27
2019-05-25T16:45:21.357Z,6.50
2019-05-25T16:47:51.532Z,6.10
2019-05-25T16:50:22.000Z,7.10
2019-05-25T16:52:52.431Z,7.20
2019-05-25T16:55:23.236Z,7.93
2019-05-25T16:57:53.873Z,6.77
2019-05-25T17:00:28.388Z,9.20
2019-05-25T17:02:59.136Z,9.03
2019-05-25T17:05:29.549Z,7.87
2019-05-25T17:08:00.368Z,8.17
2019-05-25T17:10:31.143Z,6.33
2019-05-25T17:13:01.619Z,6.50
2019-05-25T17:15:34.549Z,6.70
2019-05-25T17:18:05.973Z,7.37
2019-05-25T17:20:36.265Z,7.00
2019-05-25T17:23:05.778Z,9.03
2019-05-25T17:25:35.434Z,7.60
2019-05-25T17:28:05.550Z,7.83
2019-05-25T17:30:45.748Z,7.40
2019-05-25T17:33:16.218Z,7.03
2019-05-25T17:35:46.642Z,7.27
2019-05-25T17:38:17.939Z,6.60
2019-05-25T17:40:48.151Z,6.40
2019-05-25T17:43:18.467Z,5.47
2019-05-25T17:45:49.140Z,6.10
2019-05-25T17:48:20.148Z,5.70
2019-05-25T17:50:50.876Z,5.00
2019-05-25T17:53:21.624Z,5.73
2019-05-25T17:55:52.139Z,6.50
2019-05-25T17:58:23.210Z,5.27
2019-05-25T18:00:54.293Z,6.03
2019-05-25T18:03:25.252Z,5.47
2019-05-25T18:05:56.210Z,6.20
2019-05-25T18:08:26.833Z,5.00
2019-05-25T18:10:56.541Z,4.73
2019-05-25T18:13:28.921Z,4.80
2019-05-25T18:15:57.646Z,6.60
2019-05-25T18:18:27.729Z,4.57
2019-05-25T18:20:56.791Z,6.27
2019-05-25T18:23:27.211Z,5.20
2019-05-25T18:25:58.740Z,5.67
2019-05-25T18:28:29.518Z,4.43
2019-05-25T18:31:00.641Z,4.67
2019-05-25T18:33:30.878Z,4.93
2019-05-25T18:36:01.036Z,4.83
2019-05-25T18:38:35.136Z,4.87
2019-05-25T18:41:04.205Z,5.30
2019-05-25T18:43:35.287Z,5.83
2019-05-25T18:46:07.284Z,6.20
2019-05-25T18:48:38.184Z,6.20
2019-05-25T18:51:09.331Z,6.27
2019-05-25T18:53:40.697Z,6.60
2019-05-25T18:56:10.958Z,7.63
2019-05-25T18:58:41.405Z,7.03
2019-05-25T19:01:11.793Z,7.20
2019-05-25T19:03:41.621Z,7.67
2019-05-25T19:06:10.686Z,7.60
2019-05-25T19:08:39.569Z,8.20
2019-05-25T19:11:08.447Z,9.37
2019-05-25T19:13:36.962Z,9.33
2019-05-25T19:16:05.870Z,9.50
2019-05-25T19:18:35.304Z,9.17
2019-05-25T19:21:04.823Z,8.10
2019-05-25T19:23:33.575Z,8.50
2019-05-25T19:26:01.925Z,8.20
2019-05-25T19:28:30.625Z,8.87
2019-05-25T19:31:00.555Z,9.73
2019-05-25T19:33:29.090Z,11.67
2019-05-25T19:35:57.859Z,10.77
2019-05-25T19:38:26.369Z,10.80
2019-05-25T19:40:55.092Z,10.17
2019-05-25T19:43:23.874Z,10.67
2019-05-25T19:45:52.522Z,12.13
2019-05-25T19:48:22.297Z,13.93
2019-05-25T19:50:51.573Z,11.73
2019-05-25T19:53:20.119Z,13.20
2019-05-25T19:55:48.861Z,12.50
2019-05-25T19:58:17.645Z,13.47
2019-05-25T20:00:46.639Z,14.13
2019-05-25T20:03:15.804Z,13.00
2019-05-25T20:05:44.609Z,13.70
2019-05-25T20:08:13.268Z,14.33
2019-05-25T20:10:42.189Z,14.80
2019-05-25T20:13:11.217Z,14.80
2019-05-25T20:15:40.054Z,16.60
2019-05-25T20:18:08.501Z,17.07
2019-05-25T20:20:37.184Z,20.03
2019-05-25T20:23:06.430Z,17.90
2019-05-25T20:25:36.236Z,18.93
2019-05-25T20:28:04.597Z,19.33
2019-05-25T20:30:33.416Z,18.10
2019-05-25T20:33:02.347Z,19.93
2019-05-25T20:35:33.348Z,19.43
2019-05-25T20:38:02.177Z,23.73
2019-05-25T20:40:49.935Z,24.13
2019-05-25T20:43:36.668Z,20.10
2019-05-25T20:46:23.768Z,19.10
2019-05-25T20:49:10.608Z,19.07
2019-05-25T20:51:58.070Z,16.23
2019-05-25T20:54:46.120Z,18.50
2019-05-25T20:57:34.436Z,19.13
2019-05-25T21:00:24.322Z,17.43
2019-05-25T21:03:11.612Z,24.27
2019-05-25T21:05:58.900Z,22.57
2019-05-25T21:08:45.638Z,26.07
2019-05-25T21:11:33.194Z,23.13
2019-05-25T21:14:01.671Z,23.13
2019-05-25T21:16:30.487Z,24.10
2019-05-25T21:19:02.736Z,24.57
2019-05-25T21:21:31.814Z,22.93
2019-05-25T21:24:01.805Z,23.63
2019-05-25T21:26:32.221Z,23.50
2019-05-25T21:29:02.522Z,23.33
2019-05-25T21:31:32.095Z,30.77
2019-05-25T21:34:00.939Z,23.77
2019-05-25T21:36:29.534Z,27.30
2019-05-25T21:38:58.079Z,28.50
2019-05-25T21:41:26.576Z,28.10
2019-05-25T21:43:57.389Z,23.53
2019-05-25T21:46:28.892Z,23.83
2019-05-25T21:48:59.246Z,25.73
2019-05-25T21:51:29.659Z,23.30
2019-05-25T21:53:59.940Z,22.93
2019-05-25T21:56:31.240Z,27.37
2019-05-25T21:59:01.634Z,25.83
2019-05-25T22:01:32.584Z,24.40
2019-05-25T22:04:02.842Z,32.23
2019-05-25T22:06:34.130Z,26.83
2019-05-25T22:09:06.028Z,29.50
2019-05-25T22:11:34.516Z,24.33
2019-05-25T22:14:03.104Z,30.43
2019-05-25T22:16:31.653Z,29.97
2019-05-25T22:19:00.265Z,37.83
2019-05-25T22:21:28.603Z,34.43
2019-05-25T22:23:58.214Z,35.00
2019-05-25T22:26:27.131Z,35.83
2019-05-25T22:28:56.496Z,34.23
2019-05-25T22:31:25.223Z,36.67
2019-05-25T22:33:54.044Z,37.03
2019-05-25T22:36:22.575Z,27.60
2019-05-25T22:38:50.974Z,37.43
2019-05-25T22:41:20.295Z,33.27
2019-05-25T22:43:49.425Z,33.07
2019-05-25T22:46:24.548Z,33.80
2019-05-25T22:48:53.275Z,31.43
2019-05-25T22:51:22.159Z,39.40
2019-05-25T22:53:50.842Z,55.33
2019-05-25T22:56:19.190Z,53.53
2019-05-25T22:58:47.650Z,41.63
2019-05-25T23:01:15.789Z,42.43
2019-05-25T23:03:44.266Z,54.57
2019-05-25T23:06:12.764Z,54.27
2019-05-25T23:08:40.994Z,41.67
2019-05-25T23:11:09.226Z,44.27
2019-05-25T23:13:38.388Z,41.00
2019-05-25T23:16:08.619Z,41.23
2019-05-25T23:18:37.004Z,48.83
2019-05-25T23:21:05.551Z,36.80
2019-05-25T23:23:34.955Z,39.20
2019-05-25T23:26:03.290Z,44.97
2019-05-25T23:28:31.720Z,45.47
2019-05-25T23:31:00.188Z,41.10
2019-05-25T23:33:29.560Z,36.67
2019-05-25T23:35:58.173Z,41.13
2019-05-25T23:38:26.446Z,35.70
2019-05-25T23:40:54.934Z,34.67
2019-05-25T23:43:25.121Z,32.53
2019-05-25T23:45:53.312Z,32.80
2019-05-25T23:48:21.975Z,41.00
2019-05-25T23:50:50.486Z,37.23
2019-05-25T23:53:19.250Z,37.90
2019-05-25T23:55:47.244Z,30.83
2019-05-25T23:58:16.771Z,35.17
